Portada
METAR-TAF:

METAR-TAF

Aeroports :

Kerman, Iran

latitud: 30-15N, longitud: 056-58E, altitud: 1748 m

Observació

L'informe es va fer fa 32 minuts, a les 01:00 UTC
Vent calma
Temperatura -2°C
Humitat 74%
Pressió 1019 hPa
Visibilitat 10 km o més
sense núvols per sota de 1500 mi sense presència de cumulonimbus.

METAR: OIKK 250100Z 00000KT CAVOK M02/M06 Q1018 A3009

Hora: 05:02 (01:32 UTC)

Pronòstic

L'informe es va fer fa 2 hores i 32 minuts, a les 23:00 UTC
Pronòstic vàlid del 25 a les 00 UTC al 26 a les 06 UTC
Vent 8 kt del Sud-Oest
Visibilitat: 8000 m
Escasses núvols a una alçada de 3500 ft

TAF: OIKK 242300Z 2500/2606 22008KT 8000 FEW035

Observacions i pronòstics meteorològics de més de 4000 aeroports (METAR i TAF).

Les estacions disponibles són els punts grocs i vermells al mapa.

Posi el ratolí al punt desitjat per veure el nom de l'estació.

Feu clic per veure les observacions i els pronòstics meteorològics.

Per canviar el mapa: feu clic els botons verds amb una creu de color negre per apropar; al botó verd amb un guió per allunyar la imatge; o en les fletxes verdes per a mapes adjacents.


METAR-TAF: